createdAt,value
2022-11-24T00:00:59.694Z,10.80
2022-11-24T00:01:59.761Z,9.30
2022-11-24T00:02:59.742Z,11.10
2022-11-24T00:03:59.665Z,15.10
2022-11-24T00:04:59.631Z,16.10
2022-11-24T00:05:59.647Z,9.60
2022-11-24T00:06:59.625Z,9.60
2022-11-24T00:07:59.633Z,10.00
2022-11-24T00:08:59.580Z,10.50
2022-11-24T00:09:59.592Z,10.40
2022-11-24T00:10:59.564Z,10.60
2022-11-24T00:11:59.574Z,10.80
2022-11-24T00:12:59.538Z,10.90
2022-11-24T00:13:59.634Z,16.00
2022-11-24T00:14:59.501Z,16.20
2022-11-24T00:15:59.508Z,10.70
2022-11-24T00:16:59.556Z,11.10
2022-11-24T00:17:59.481Z,11.10
2022-11-24T00:18:59.473Z,11.00
2022-11-24T00:19:59.564Z,11.70
2022-11-24T00:20:59.443Z,12.00
2022-11-24T00:21:59.416Z,12.40
2022-11-24T00:22:59.386Z,11.80
2022-11-24T00:23:59.401Z,12.70
2022-11-24T00:24:59.380Z,12.60
2022-11-24T00:25:59.390Z,12.10
2022-11-24T00:26:59.340Z,11.60
2022-11-24T00:27:59.346Z,15.00
2022-11-24T00:28:59.316Z,19.80
2022-11-24T00:29:59.325Z,18.80
2022-11-24T00:36:23.098Z,12.20
2022-11-24T00:36:43.904Z,12.30
2022-11-24T00:37:43.908Z,12.50
2022-11-24T00:38:43.878Z,12.30
2022-11-24T00:39:43.890Z,18.00
2022-11-24T00:40:43.870Z,22.90
2022-11-24T00:41:43.872Z,14.50
2022-11-24T00:42:43.836Z,11.70
2022-11-24T00:43:43.816Z,12.20
2022-11-24T00:44:43.798Z,12.90
2022-11-24T00:45:43.900Z,12.10
2022-11-24T00:46:43.877Z,12.90
2022-11-24T00:47:43.811Z,13.80
2022-11-24T00:48:43.901Z,13.40
2022-11-24T00:49:43.799Z,13.10
2022-11-24T00:50:43.869Z,12.50
2022-11-24T00:51:43.746Z,15.60
2022-11-24T00:52:43.718Z,18.10
2022-11-24T00:53:43.743Z,14.50
2022-11-24T00:54:43.702Z,12.80
2022-11-24T00:55:43.688Z,13.60
2022-11-24T00:56:43.643Z,22.40
2022-11-24T00:57:43.656Z,26.70
2022-11-24T00:58:43.636Z,12.80
2022-11-24T00:59:43.697Z,13.40
2022-11-24T01:00:43.632Z,24.10
2022-11-24T01:01:43.671Z,30.50
2022-11-24T01:02:43.658Z,24.80
2022-11-24T01:03:43.615Z,12.60
2022-11-24T01:04:43.556Z,13.20
2022-11-24T01:05:43.603Z,14.00
2022-11-24T01:06:43.531Z,17.30
2022-11-24T01:07:43.600Z,22.10
2022-11-24T01:08:43.486Z,24.50
2022-11-24T01:09:43.503Z,13.00
2022-11-24T01:10:43.475Z,12.30
2022-11-24T01:11:43.607Z,13.80
2022-11-24T01:12:43.452Z,13.60
2022-11-24T01:13:43.439Z,14.40
2022-11-24T01:14:43.461Z,13.70
2022-11-24T01:15:43.442Z,14.20
2022-11-24T01:16:43.392Z,16.40
2022-11-24T01:17:43.519Z,22.50
2022-11-24T01:18:43.366Z,17.10
2022-11-24T01:19:43.373Z,12.70
2022-11-24T01:20:43.379Z,12.70
2022-11-24T01:21:43.342Z,13.90
2022-11-24T01:22:43.325Z,17.70
2022-11-24T01:23:43.445Z,18.50
2022-11-24T01:24:43.305Z,21.30
2022-11-24T01:25:43.289Z,12.20
2022-11-24T01:27:55.363Z,12.80
2022-11-24T01:28:55.447Z,14.00
2022-11-24T01:29:55.259Z,18.00
2022-11-24T01:30:55.283Z,23.50
2022-11-24T01:31:55.261Z,13.30
2022-11-24T01:32:55.208Z,13.20
2022-11-24T01:33:55.198Z,12.80
2022-11-24T01:34:55.205Z,20.50
2022-11-24T01:35:55.184Z,20.20
2022-11-24T01:36:55.165Z,12.70
2022-11-24T01:37:55.137Z,13.00
2022-11-24T01:38:55.131Z,13.50
2022-11-24T01:39:55.138Z,14.00
2022-11-24T01:40:55.147Z,14.40
2022-11-24T01:41:55.097Z,13.80
2022-11-24T01:42:55.082Z,14.90
2022-11-24T01:43:55.055Z,15.00
2022-11-24T01:44:55.040Z,15.00
2022-11-24T01:45:55.066Z,15.80
2022-11-24T01:46:55.128Z,19.70
2022-11-24T01:47:55.010Z,24.20
2022-11-24T01:48:54.977Z,25.40
2022-11-24T01:49:54.977Z,14.80
2022-11-24T01:50:54.964Z,15.90
2022-11-24T01:51:54.960Z,18.00
2022-11-24T01:52:54.962Z,22.20
2022-11-24T01:53:54.940Z,20.10
2022-11-24T01:54:54.914Z,14.90
2022-11-24T01:55:54.890Z,15.90
2022-11-24T01:56:54.895Z,20.70
2022-11-24T01:57:54.873Z,24.50
2022-11-24T01:58:54.880Z,16.80
2022-11-24T01:59:54.852Z,22.50
2022-11-24T02:00:54.810Z,28.50
2022-11-24T02:01:54.842Z,21.40
2022-11-24T02:02:54.865Z,16.60
2022-11-24T02:03:54.805Z,17.40
2022-11-24T02:04:54.894Z,19.30
2022-11-24T02:05:54.776Z,21.20
2022-11-24T02:06:54.735Z,17.60
2022-11-24T02:07:54.786Z,22.00
2022-11-24T02:08:54.708Z,23.50
2022-11-24T02:09:54.699Z,18.50
2022-11-24T02:10:54.731Z,18.60
2022-11-24T02:11:54.684Z,18.90
2022-11-24T02:12:54.667Z,23.40
2022-11-24T02:13:54.667Z,22.70
2022-11-24T02:14:54.634Z,17.50
2022-11-24T02:15:54.690Z,17.70
2022-11-24T02:16:54.746Z,24.40
2022-11-24T02:17:54.597Z,32.20
2022-11-24T02:18:54.612Z,24.50
2022-11-24T02:19:54.564Z,18.70
2022-11-24T02:20:54.560Z,19.50
2022-11-24T02:21:54.557Z,24.90
2022-11-24T02:22:54.635Z,27.40
2022-11-24T02:23:54.547Z,20.40
2022-11-24T02:24:54.497Z,23.30
2022-11-24T02:25:54.485Z,24.20
2022-11-24T02:26:54.485Z,23.40
2022-11-24T02:27:54.492Z,19.80
2022-11-24T02:28:54.477Z,21.40
2022-11-24T02:29:54.561Z,30.90
2022-11-24T02:30:54.527Z,31.60
2022-11-24T02:31:54.410Z,21.40
2022-11-24T02:32:54.415Z,27.60
2022-11-24T02:33:54.391Z,35.20
2022-11-24T02:34:54.398Z,30.70
2022-11-24T02:35:54.370Z,20.70
2022-11-24T02:36:54.341Z,21.10
2022-11-24T02:37:54.322Z,26.80
2022-11-24T02:38:54.325Z,33.40
2022-11-24T02:39:54.319Z,25.80
2022-11-24T02:40:54.406Z,21.60
2022-11-24T02:41:54.286Z,23.00
2022-11-24T02:42:54.284Z,32.40
2022-11-24T02:43:54.259Z,33.30
2022-11-24T02:44:54.234Z,25.20
2022-11-24T02:45:54.266Z,26.40
2022-11-24T02:46:54.311Z,21.80
2022-11-24T02:47:54.215Z,25.80
2022-11-24T02:48:54.163Z,37.00
2022-11-24T02:49:54.172Z,27.20
2022-11-24T02:50:54.154Z,20.70
2022-11-24T02:51:54.143Z,22.30
2022-11-24T02:52:54.238Z,33.60
2022-11-24T02:53:54.129Z,27.20
2022-11-24T02:54:54.083Z,23.40
2022-11-24T02:55:54.115Z,22.30
2022-11-24T02:56:54.074Z,23.30
2022-11-24T02:57:54.078Z,35.80
2022-11-24T02:58:54.096Z,32.40
2022-11-24T02:59:54.037Z,22.40
2022-11-24T03:00:54.014Z,26.90
2022-11-24T03:01:54.040Z,31.30
2022-11-24T03:02:54.070Z,27.70
2022-11-24T03:03:53.976Z,22.50
2022-11-24T03:04:53.997Z,25.00
2022-11-24T03:05:53.964Z,34.10
2022-11-24T03:06:53.949Z,33.70
2022-11-24T03:09:05.108Z,25.40
2022-11-24T03:10:05.080Z,25.60
2022-11-24T03:11:04.993Z,36.60
2022-11-24T03:12:04.911Z,33.20
2022-11-24T03:13:04.887Z,23.20
2022-11-24T03:14:04.848Z,24.10
2022-11-24T03:15:04.884Z,32.00
2022-11-24T03:16:04.880Z,32.10
2022-11-24T03:17:04.853Z,23.30
2022-11-24T03:18:04.816Z,24.10
2022-11-24T03:19:04.800Z,28.40
2022-11-24T03:20:05.384Z,32.00
2022-11-24T03:21:04.761Z,31.80
2022-11-24T03:22:04.794Z,23.10
2022-11-24T03:23:04.766Z,24.00
2022-11-24T03:24:04.727Z,31.80
2022-11-24T03:25:04.726Z,30.50
2022-11-24T03:26:04.705Z,25.00
2022-11-24T03:27:04.714Z,22.20
2022-11-24T03:28:04.725Z,26.80
2022-11-24T03:29:04.668Z,31.70
2022-11-24T03:30:04.658Z,27.90
2022-11-24T03:31:04.659Z,20.60
2022-11-24T03:32:04.638Z,21.20
2022-11-24T03:33:04.617Z,29.00
2022-11-24T03:34:04.707Z,31.90
2022-11-24T03:35:04.624Z,21.50
2022-11-24T03:36:04.570Z,29.70
2022-11-24T03:37:04.572Z,31.20
2022-11-24T03:38:04.550Z,25.50
2022-11-24T03:39:04.535Z,19.20
2022-11-24T03:40:04.650Z,19.50
2022-11-24T03:41:04.497Z,24.10
2022-11-24T03:42:04.489Z,27.50
2022-11-24T03:43:04.493Z,19.40
2022-11-24T03:44:04.469Z,19.30
2022-11-24T03:45:29.972Z,26.70
2022-11-24T03:46:05.485Z,30.90
2022-11-24T03:47:04.429Z,22.60
2022-11-24T03:48:04.425Z,19.00
2022-11-24T03:49:04.423Z,20.80
2022-11-24T03:50:04.372Z,28.90
2022-11-24T03:51:04.380Z,28.80
2022-11-24T03:52:07.973Z,18.90
2022-11-24T03:53:04.364Z,28.40
2022-11-24T03:54:04.334Z,26.90
2022-11-24T03:55:04.317Z,27.70
2022-11-24T03:56:04.326Z,17.60
2022-11-24T03:57:04.314Z,17.70
2022-11-24T03:58:04.423Z,21.60
2022-11-24T03:59:04.260Z,28.90
2022-11-24T04:00:04.263Z,25.30
2022-11-24T04:01:04.257Z,17.30
2022-11-24T04:02:04.291Z,18.10
2022-11-24T04:03:04.272Z,30.20
2022-11-24T04:04:04.214Z,28.20
2022-11-24T04:05:04.216Z,18.40
2022-11-24T04:06:04.177Z,16.80
2022-11-24T04:07:04.164Z,27.70
2022-11-24T04:08:04.154Z,31.50
2022-11-24T04:09:04.138Z,27.50
2022-11-24T04:10:04.158Z,15.60
2022-11-24T04:11:04.118Z,17.80
2022-11-24T04:12:04.106Z,28.40
2022-11-24T04:13:04.076Z,20.60
2022-11-24T04:14:06.716Z,19.20
2022-11-24T04:15:05.117Z,25.40
2022-11-24T04:16:04.043Z,23.90
2022-11-24T04:17:04.030Z,14.30
2022-11-24T04:18:04.027Z,15.50
2022-11-24T04:19:03.997Z,21.00
2022-11-24T04:20:03.991Z,27.40
2022-11-24T04:21:04.101Z,27.70
2022-11-24T04:22:03.954Z,15.30
2022-11-24T04:23:03.963Z,15.80
2022-11-24T04:24:03.920Z,19.70
2022-11-24T04:25:03.934Z,26.00
2022-11-24T04:26:03.920Z,19.10
2022-11-24T04:27:04.019Z,14.20
2022-11-24T04:28:03.872Z,17.60
2022-11-24T04:29:03.883Z,26.60
2022-11-24T04:30:03.854Z,27.20
2022-11-24T04:31:03.874Z,14.10
2022-11-24T04:32:03.840Z,14.40
2022-11-24T04:33:03.822Z,25.00
2022-11-24T04:34:03.784Z,30.50
2022-11-24T04:35:03.784Z,14.70
2022-11-24T04:36:03.742Z,21.80
2022-11-24T04:37:03.811Z,31.10
2022-11-24T04:38:03.744Z,23.60
2022-11-24T04:39:23.057Z,13.90
2022-11-24T04:40:04.727Z,13.40
2022-11-24T04:41:03.727Z,24.50
2022-11-24T04:42:03.692Z,25.20
2022-11-24T04:43:03.686Z,14.00
2022-11-24T04:44:03.664Z,14.50
2022-11-24T04:45:03.687Z,20.70
2022-11-24T04:46:03.803Z,25.30
2022-11-24T04:47:03.629Z,14.00
2022-11-24T04:48:03.652Z,13.40
2022-11-24T04:49:03.601Z,16.60
2022-11-24T04:50:03.574Z,25.80
2022-11-24T04:51:03.619Z,24.80
2022-11-24T04:52:03.535Z,13.50
2022-11-24T04:53:03.556Z,13.90
2022-11-24T04:54:03.538Z,20.40
2022-11-24T04:55:03.520Z,34.40
2022-11-24T04:56:03.492Z,13.80
2022-11-24T04:57:03.598Z,14.50
2022-11-24T04:58:03.476Z,21.40
2022-11-24T04:59:07.960Z,27.00
2022-11-24T05:00:03.455Z,13.70
2022-11-24T05:01:03.429Z,13.20
2022-11-24T05:02:03.457Z,21.70
2022-11-24T05:03:03.539Z,26.70
2022-11-24T05:04:03.398Z,18.80
2022-11-24T05:05:03.391Z,12.50
2022-11-24T05:06:03.369Z,13.20
2022-11-24T05:07:03.350Z,19.60
2022-11-24T05:08:03.436Z,22.80
2022-11-24T05:09:03.473Z,12.10
2022-11-24T05:10:03.325Z,13.00
2022-11-24T05:11:03.334Z,18.50
2022-11-24T05:12:03.263Z,24.40
2022-11-24T05:13:03.310Z,17.50
2022-11-24T05:14:03.282Z,11.40
2022-11-24T05:15:03.295Z,12.80
2022-11-24T05:16:03.287Z,14.70
2022-11-24T05:17:03.260Z,22.00
2022-11-24T05:18:03.229Z,14.00
2022-11-24T05:19:03.215Z,13.60
2022-11-24T05:20:03.210Z,17.00
2022-11-24T05:21:03.314Z,20.10
2022-11-24T05:22:03.160Z,12.80
2022-11-24T05:23:03.203Z,11.50
2022-11-24T05:24:03.124Z,15.20
2022-11-24T05:25:03.165Z,21.70
2022-11-24T05:26:03.141Z,14.30
2022-11-24T05:27:03.124Z,12.00
2022-11-24T05:28:03.105Z,13.20
2022-11-24T05:29:03.085Z,16.00
2022-11-24T05:30:03.039Z,18.80
2022-11-24T05:31:03.111Z,11.80
2022-11-24T05:32:03.042Z,12.40
2022-11-24T05:33:03.138Z,12.40
2022-11-24T05:34:02.991Z,16.10
2022-11-24T05:35:03.037Z,17.50
2022-11-24T05:36:02.957Z,11.80
2022-11-24T05:37:03.008Z,12.30
2022-11-24T05:38:02.964Z,14.30
2022-11-24T05:39:03.081Z,19.80
2022-11-24T05:40:02.938Z,13.40
2022-11-24T05:41:02.927Z,12.20
2022-11-24T05:42:02.889Z,13.20
2022-11-24T05:43:02.915Z,20.30
2022-11-24T05:44:02.862Z,16.60
2022-11-24T05:45:02.908Z,11.60
2022-11-24T05:46:02.858Z,12.50
2022-11-24T05:47:02.889Z,15.40
2022-11-24T05:48:02.823Z,20.60
2022-11-24T05:49:02.817Z,13.50
2022-11-24T05:50:02.837Z,19.40
2022-11-24T05:51:07.896Z,20.90
2022-11-24T05:52:03.809Z,16.00
2022-11-24T05:53:02.739Z,11.90
2022-11-24T05:54:02.752Z,12.30
2022-11-24T05:55:02.756Z,15.00
2022-11-24T05:56:02.722Z,19.70
2022-11-24T05:57:02.850Z,12.60
2022-11-24T05:58:02.729Z,11.60
2022-11-24T05:59:08.216Z,12.40
2022-11-24T06:00:03.715Z,15.40
2022-11-24T06:01:02.633Z,17.20
2022-11-24T06:02:02.798Z,12.70
2022-11-24T06:03:02.815Z,12.90
2022-11-24T06:04:02.659Z,17.60
2022-11-24T06:05:02.586Z,14.20
2022-11-24T06:06:02.596Z,11.40
2022-11-24T06:07:02.582Z,11.70
2022-11-24T06:08:02.563Z,12.40
2022-11-24T06:09:02.573Z,15.10
2022-11-24T06:10:02.575Z,12.30
2022-11-24T06:11:02.507Z,11.70
2022-11-24T06:12:02.543Z,12.10
2022-11-24T06:13:02.525Z,12.20
2022-11-24T06:14:04.712Z,13.10
2022-11-24T06:15:03.601Z,13.80
2022-11-24T06:16:02.530Z,16.40
2022-11-24T06:17:02.453Z,14.40
2022-11-24T06:18:02.474Z,12.40
2022-11-24T06:19:02.400Z,12.80
2022-11-24T06:20:02.408Z,13.10
2022-11-24T06:21:10.814Z,15.10
2022-11-24T06:22:03.412Z,12.40
2022-11-24T06:23:02.340Z,11.70
2022-11-24T06:24:02.368Z,12.80
2022-11-24T06:25:02.329Z,15.70
2022-11-24T06:26:02.329Z,12.80
2022-11-24T06:27:02.336Z,12.70
2022-11-24T06:28:02.310Z,16.30
2022-11-24T06:29:02.277Z,18.40
2022-11-24T06:30:02.296Z,12.00
2022-11-24T06:31:02.220Z,12.00
2022-11-24T06:32:02.333Z,13.00
2022-11-24T06:33:02.333Z,16.00
2022-11-24T06:34:02.228Z,13.10
2022-11-24T06:35:02.218Z,12.90
2022-11-24T06:36:02.238Z,15.20
2022-11-24T06:37:02.161Z,20.10
2022-11-24T06:38:02.163Z,11.60
2022-11-24T06:39:02.198Z,12.20
2022-11-24T06:40:02.161Z,15.80
2022-11-24T06:41:02.130Z,19.00
2022-11-24T06:42:02.157Z,14.50
2022-11-24T06:43:02.092Z,12.40
2022-11-24T06:44:02.111Z,12.40
2022-11-24T06:45:07.441Z,15.00
2022-11-24T06:46:03.086Z,19.30
2022-11-24T06:47:02.052Z,12.60
2022-11-24T06:48:02.060Z,12.80
2022-11-24T06:49:02.011Z,13.20
2022-11-24T06:50:02.042Z,17.60
2022-11-24T06:51:02.093Z,15.40
2022-11-24T06:52:02.020Z,13.60
2022-11-24T06:53:01.959Z,16.50
2022-11-24T06:54:01.966Z,23.00
2022-11-24T06:55:01.955Z,16.60
2022-11-24T06:56:01.952Z,12.00
2022-11-24T06:57:02.059Z,12.40
2022-11-24T06:58:01.940Z,15.30
2022-11-24T06:59:01.886Z,17.30
2022-11-24T07:00:01.919Z,13.30
2022-11-24T07:01:01.897Z,17.50
2022-11-24T07:02:01.858Z,19.60
2022-11-24T07:03:02.004Z,12.30
2022-11-24T07:04:01.828Z,12.10
2022-11-24T07:05:01.807Z,14.80
2022-11-24T07:06:01.847Z,22.90
2022-11-24T07:07:01.760Z,18.40
2022-11-24T07:08:01.782Z,13.40
2022-11-24T07:09:01.814Z,12.70
2022-11-24T07:10:01.778Z,16.00
2022-11-24T07:11:01.702Z,22.10
2022-11-24T07:12:01.759Z,15.00
2022-11-24T07:13:01.682Z,12.60
2022-11-24T07:14:01.700Z,13.10
2022-11-24T07:15:01.807Z,15.40
2022-11-24T07:16:01.705Z,21.00
2022-11-24T07:17:01.678Z,12.70
2022-11-24T07:18:01.659Z,12.80
2022-11-24T07:19:01.606Z,13.30
2022-11-24T07:20:01.657Z,18.40
2022-11-24T07:21:01.689Z,17.30
2022-11-24T07:22:01.593Z,12.70
2022-11-24T07:23:01.582Z,12.70
2022-11-24T07:24:01.602Z,13.30
2022-11-24T07:25:01.538Z,14.00
2022-11-24T07:26:06.501Z,14.90
2022-11-24T07:27:02.585Z,17.40
2022-11-24T07:28:01.516Z,13.20
2022-11-24T07:29:01.512Z,13.00
2022-11-24T07:30:01.518Z,12.80
2022-11-24T07:31:01.452Z,15.50
2022-11-24T07:32:05.435Z,15.30
2022-11-24T07:33:01.531Z,13.10
2022-11-24T07:34:01.428Z,12.90
2022-11-24T07:35:01.424Z,13.60
2022-11-24T07:36:01.428Z,13.40
2022-11-24T07:37:01.417Z,14.00
2022-11-24T07:38:01.417Z,14.20
2022-11-24T07:39:01.379Z,13.40
2022-11-24T07:40:01.370Z,13.60
2022-11-24T07:41:01.344Z,13.80
2022-11-24T07:42:01.367Z,13.60
2022-11-24T07:43:01.293Z,13.40
2022-11-24T07:44:01.325Z,13.00
2022-11-24T07:45:01.297Z,14.70
2022-11-24T07:46:01.313Z,17.70
2022-11-24T07:47:01.305Z,13.10
2022-11-24T07:48:01.271Z,12.90
2022-11-24T07:49:01.239Z,12.80
2022-11-24T07:50:01.245Z,12.90
2022-11-24T07:51:01.217Z,14.40
2022-11-24T07:52:01.240Z,16.80
2022-11-24T07:53:01.146Z,16.90
2022-11-24T07:54:01.162Z,13.10
2022-11-24T07:55:01.157Z,13.00
2022-11-24T07:56:01.151Z,13.00
2022-11-24T07:57:01.246Z,13.50
2022-11-24T07:58:01.141Z,14.40
2022-11-24T07:59:01.080Z,14.00
2022-11-24T08:00:01.137Z,13.90
2022-11-24T08:01:01.058Z,14.90
2022-11-24T08:02:01.112Z,13.70
2022-11-24T08:03:01.162Z,13.50
2022-11-24T08:04:01.101Z,13.40
2022-11-24T08:05:01.026Z,13.70
2022-11-24T08:06:22.837Z,14.00
2022-11-24T08:07:01.987Z,13.90
2022-11-24T08:08:01.015Z,13.90
2022-11-24T08:09:01.076Z,12.70
2022-11-24T08:10:00.963Z,13.30
2022-11-24T08:11:00.948Z,13.30
2022-11-24T08:12:00.982Z,13.30
2022-11-24T08:13:00.906Z,13.40
2022-11-24T08:14:00.910Z,13.00
2022-11-24T08:15:01.867Z,13.20
2022-11-24T08:16:00.899Z,13.50
2022-11-24T08:17:00.917Z,13.50
2022-11-24T08:18:00.867Z,13.40
2022-11-24T08:19:00.811Z,13.80
2022-11-24T08:20:00.855Z,12.90
2022-11-24T08:21:00.916Z,13.40
2022-11-24T08:22:00.801Z,13.10
2022-11-24T08:23:00.790Z,14.30
2022-11-24T08:24:00.770Z,13.20
2022-11-24T08:25:00.748Z,13.50
2022-11-24T08:26:00.771Z,14.30
2022-11-24T08:27:00.722Z,14.00
2022-11-24T08:28:00.723Z,14.60
2022-11-24T08:29:00.722Z,14.30
2022-11-24T08:30:00.739Z,14.10
2022-11-24T08:31:00.636Z,14.00
2022-11-24T08:32:00.744Z,13.60
2022-11-24T08:33:00.796Z,14.80
2022-11-24T08:34:00.680Z,14.00
2022-11-24T08:35:13.379Z,14.80
2022-11-24T08:36:01.604Z,14.10
2022-11-24T08:37:00.589Z,14.00
2022-11-24T08:38:04.665Z,14.60
2022-11-24T08:39:00.740Z,13.80
2022-11-24T08:40:00.592Z,14.00
2022-11-24T08:41:00.533Z,14.30
2022-11-24T08:42:00.534Z,14.40
2022-11-24T08:43:00.525Z,14.00
2022-11-24T08:44:00.543Z,14.30
2022-11-24T08:45:17.485Z,14.20
2022-11-24T08:46:01.533Z,13.70
2022-11-24T08:47:00.471Z,14.00
2022-11-24T08:48:00.461Z,14.40
2022-11-24T08:49:00.453Z,14.80
2022-11-24T08:50:00.465Z,15.20
2022-11-24T08:51:00.519Z,14.40
2022-11-24T08:52:00.431Z,15.00
2022-11-24T08:53:00.359Z,15.00
2022-11-24T08:54:00.367Z,14.10
2022-11-24T08:55:00.367Z,14.40
2022-11-24T08:56:00.359Z,14.70
2022-11-24T08:57:00.456Z,14.50
2022-11-24T08:58:00.355Z,13.20
2022-11-24T08:59:00.436Z,14.30
2022-11-24T09:00:00.318Z,14.60
2022-11-24T09:01:00.267Z,14.10
2022-11-24T09:02:00.381Z,13.30
2022-11-24T09:03:00.379Z,13.90
2022-11-24T09:04:00.313Z,13.80
2022-11-24T09:05:00.230Z,13.50
2022-11-24T09:06:00.250Z,13.40
2022-11-24T09:07:00.174Z,13.30
2022-11-24T09:08:00.209Z,13.40
2022-11-24T09:09:00.257Z,13.00
2022-11-24T09:10:00.164Z,16.70
2022-11-24T09:11:00.142Z,12.30
2022-11-24T09:12:00.139Z,12.00
2022-11-24T09:13:00.148Z,12.30
2022-11-24T09:14:00.149Z,12.30
2022-11-24T09:15:00.144Z,12.30
2022-11-24T09:16:00.096Z,13.00
2022-11-24T09:17:00.152Z,12.40
2022-11-24T09:18:00.103Z,12.30
2022-11-24T09:19:00.042Z,12.40
2022-11-24T09:20:00.074Z,13.10
2022-11-24T09:21:00.102Z,12.70
2022-11-24T09:22:00.026Z,13.30
2022-11-24T09:22:59.998Z,12.80
2022-11-24T09:23:59.989Z,12.70
2022-11-24T09:24:59.976Z,13.50
2022-11-24T09:25:59.977Z,13.70
2022-11-24T09:26:59.952Z,13.00
2022-11-24T09:27:59.997Z,13.00
2022-11-24T09:28:59.883Z,13.30
2022-11-24T09:29:59.901Z,13.10
2022-11-24T09:30:59.959Z,13.90
2022-11-24T09:32:06.318Z,14.00
2022-11-24T09:33:00.953Z,13.50
2022-11-24T09:33:59.843Z,13.40
2022-11-24T09:34:59.839Z,14.00
2022-11-24T09:35:59.821Z,13.20
2022-11-24T09:36:59.801Z,13.10
2022-11-24T09:37:59.840Z,12.90
2022-11-24T09:38:59.787Z,13.00
2022-11-24T09:39:59.800Z,12.60
2022-11-24T09:40:59.717Z,13.20
2022-11-24T09:41:59.761Z,14.10
2022-11-24T09:42:59.755Z,13.50
2022-11-24T09:43:59.728Z,14.30
2022-11-24T09:44:59.727Z,12.90
2022-11-24T09:46:07.049Z,13.20
2022-11-24T09:47:00.753Z,13.50
2022-11-24T09:47:59.662Z,12.90
2022-11-24T09:48:59.712Z,13.30
2022-11-24T09:49:59.710Z,13.40
2022-11-24T09:50:59.662Z,13.70
2022-11-24T09:51:59.658Z,13.40
2022-11-24T09:52:59.582Z,13.20
2022-11-24T09:53:59.578Z,11.60
2022-11-24T09:54:59.581Z,12.30
2022-11-24T09:55:59.562Z,13.10
2022-11-24T09:56:59.587Z,12.80
2022-11-24T09:57:59.561Z,11.10
2022-11-24T09:58:59.492Z,11.30
2022-11-24T09:59:59.519Z,10.70
2022-11-24T10:00:59.602Z,11.10
2022-11-24T10:01:59.529Z,10.30
2022-11-24T10:02:59.600Z,8.50
2022-11-24T10:05:15.217Z,9.10
2022-11-24T10:06:10.475Z,9.20
2022-11-24T10:07:10.577Z,8.20
2022-11-24T10:08:10.466Z,8.30
2022-11-24T10:09:10.382Z,8.30
2022-11-24T10:10:10.458Z,9.70
2022-11-24T10:11:10.344Z,8.00
2022-11-24T10:12:10.399Z,8.30
2022-11-24T10:13:10.374Z,8.40
2022-11-24T10:14:10.492Z,9.30
2022-11-24T10:15:10.329Z,9.60
2022-11-24T10:16:10.392Z,10.30
2022-11-24T10:17:10.278Z,9.40
2022-11-24T10:18:16.251Z,10.40
2022-11-24T10:19:11.295Z,9.70
2022-11-24T10:20:10.291Z,8.50
2022-11-24T10:21:10.251Z,8.00
2022-11-24T10:22:10.242Z,8.70
2022-11-24T10:23:10.206Z,8.80
2022-11-24T10:24:10.222Z,8.30
2022-11-24T10:25:10.243Z,8.80
2022-11-24T10:26:10.201Z,8.50
2022-11-24T10:27:10.174Z,8.30
2022-11-24T10:28:10.160Z,8.40
2022-11-24T10:29:10.116Z,8.60
2022-11-24T10:30:10.165Z,9.10
2022-11-24T10:31:10.270Z,8.60
2022-11-24T10:32:10.135Z,8.50
2022-11-24T10:33:10.094Z,8.50
2022-11-24T10:34:10.085Z,9.10
2022-11-24T10:35:10.066Z,9.70
2022-11-24T10:36:10.103Z,9.00
2022-11-24T10:37:10.111Z,9.30
2022-11-24T10:38:10.054Z,9.10
2022-11-24T10:39:10.010Z,9.30
2022-11-24T10:40:21.333Z,9.10
2022-11-24T10:41:10.951Z,10.20
2022-11-24T10:42:09.993Z,10.10
2022-11-24T10:43:10.079Z,10.10
2022-11-24T10:44:09.969Z,9.80
2022-11-24T10:45:09.935Z,9.10
2022-11-24T10:46:09.975Z,9.60
2022-11-24T10:47:09.900Z,10.00
2022-11-24T10:48:09.894Z,9.60
2022-11-24T10:49:09.956Z,10.00
2022-11-24T10:50:09.890Z,9.80
2022-11-24T10:51:09.803Z,9.80
2022-11-24T10:52:09.850Z,10.00
2022-11-24T10:53:09.827Z,10.10
2022-11-24T10:54:09.806Z,10.50
2022-11-24T10:55:09.804Z,10.70
2022-11-24T10:56:09.811Z,10.40
2022-11-24T10:57:09.757Z,11.20
2022-11-24T10:58:09.754Z,10.80
2022-11-24T10:59:09.742Z,10.70
2022-11-24T11:00:09.721Z,11.20
2022-11-24T11:01:09.775Z,11.50
2022-11-24T11:02:09.839Z,11.60
2022-11-24T11:03:09.715Z,11.70
2022-11-24T11:05:20.719Z,14.20
2022-11-24T11:06:20.690Z,14.30
2022-11-24T11:07:20.713Z,14.60
2022-11-24T11:08:20.674Z,11.00
2022-11-24T11:09:20.594Z,10.60
2022-11-24T11:10:20.596Z,10.90
2022-11-24T11:11:20.597Z,11.90
2022-11-24T11:12:42.762Z,11.60
2022-11-24T11:13:21.573Z,11.90
2022-11-24T11:14:20.589Z,11.30
2022-11-24T11:15:20.512Z,11.40
2022-11-24T11:16:20.581Z,11.20
2022-11-24T11:17:20.493Z,11.60
2022-11-24T11:18:20.547Z,11.70
2022-11-24T11:19:47.423Z,12.20
2022-11-24T11:20:21.483Z,11.80
2022-11-24T11:21:20.474Z,10.90
2022-11-24T11:22:20.482Z,12.00
2022-11-24T11:23:20.412Z,10.80
2022-11-24T11:24:20.557Z,11.70
2022-11-24T11:25:20.443Z,11.50
2022-11-24T11:26:20.397Z,11.20
2022-11-24T11:27:20.386Z,11.50
2022-11-24T11:28:20.374Z,11.40
2022-11-24T11:31:22.721Z,11.10
2022-11-24T11:34:28.500Z,10.70
2022-11-24T11:35:21.277Z,11.40
2022-11-24T11:36:20.386Z,11.80
2022-11-24T11:37:20.253Z,12.00
2022-11-24T11:38:20.212Z,11.60
2022-11-24T11:39:20.248Z,11.40
2022-11-24T11:40:20.208Z,12.40
2022-11-24T11:41:20.208Z,13.80
2022-11-24T11:42:45.158Z,13.50
2022-11-24T11:43:21.199Z,13.20
2022-11-24T11:44:20.137Z,14.00
2022-11-24T11:45:20.178Z,11.30
2022-11-24T11:46:20.203Z,12.60
2022-11-24T11:47:20.132Z,12.40
2022-11-24T11:48:20.219Z,12.10
2022-11-24T11:49:20.102Z,12.10
2022-11-24T11:50:20.117Z,12.80
2022-11-24T11:51:24.174Z,12.40
2022-11-24T11:52:20.024Z,11.50
2022-11-24T11:53:20.072Z,11.80
2022-11-24T11:54:20.042Z,12.30
2022-11-24T11:55:20.006Z,12.00
2022-11-24T11:56:19.977Z,12.70
2022-11-24T11:57:20.001Z,11.70
2022-11-24T11:58:19.954Z,11.60
2022-11-24T11:59:19.977Z,11.70
2022-11-24T12:00:20.059Z,11.40
2022-11-24T12:01:19.936Z,11.40
2022-11-24T12:02:20.074Z,12.00
2022-11-24T12:03:20.094Z,11.80
2022-11-24T12:04:19.890Z,12.00
2022-11-24T12:05:19.931Z,11.70
2022-11-24T12:06:19.875Z,12.00
2022-11-24T12:07:19.894Z,12.20
2022-11-24T12:08:21.526Z,11.70
2022-11-24T12:09:21.160Z,12.60
2022-11-24T12:10:19.786Z,11.10
2022-11-24T12:11:19.827Z,11.90
2022-11-24T12:12:19.817Z,12.20
2022-11-24T12:13:19.776Z,12.50
2022-11-24T12:14:19.727Z,12.30
2022-11-24T12:15:19.769Z,12.60
2022-11-24T12:16:19.787Z,11.90
2022-11-24T12:17:19.748Z,12.60
2022-11-24T12:18:48.355Z,13.70
2022-11-24T12:19:20.694Z,13.20
2022-11-24T12:20:19.670Z,13.40
2022-11-24T12:21:26.041Z,14.00
2022-11-24T12:22:20.614Z,14.10
2022-11-24T12:23:19.679Z,14.40
2022-11-24T12:24:19.753Z,17.00
2022-11-24T12:25:19.641Z,17.10
2022-11-24T12:26:19.601Z,19.40
2022-11-24T12:27:23.207Z,18.30
2022-11-24T12:28:19.577Z,18.60
2022-11-24T12:29:19.544Z,16.50
2022-11-24T12:30:19.626Z,16.20
2022-11-24T12:31:19.661Z,14.10
2022-11-24T12:32:20.435Z,15.10
2022-11-24T12:33:19.543Z,12.90
2022-11-24T12:34:19.495Z,16.40
2022-11-24T12:35:19.476Z,19.00
2022-11-24T12:36:19.481Z,21.00
2022-11-24T12:37:19.459Z,14.70
2022-11-24T12:38:19.406Z,14.50
2022-11-24T12:39:19.456Z,14.30
2022-11-24T12:40:19.380Z,13.40
2022-11-24T12:41:40.622Z,18.30
2022-11-24T12:42:20.425Z,16.30
2022-11-24T12:43:19.370Z,16.60
2022-11-24T12:44:19.334Z,16.30
2022-11-24T12:45:19.369Z,16.10
2022-11-24T12:46:19.376Z,14.40
2022-11-24T12:47:19.300Z,11.70
2022-11-24T12:48:19.427Z,10.20
2022-11-24T12:49:19.290Z,11.10
2022-11-24T12:50:19.258Z,10.90
2022-11-24T12:51:19.325Z,10.80
2022-11-24T12:52:19.244Z,11.10
2022-11-24T12:53:19.249Z,11.50
2022-11-24T12:54:19.266Z,11.10
2022-11-24T12:55:19.212Z,11.10
2022-11-24T12:56:19.198Z,10.60
2022-11-24T12:57:19.175Z,10.40
2022-11-24T12:58:19.145Z,11.40
2022-11-24T12:59:19.180Z,11.80
2022-11-24T13:00:19.179Z,12.40
2022-11-24T13:01:19.190Z,12.70
2022-11-24T13:02:19.225Z,12.00
2022-11-24T13:03:19.186Z,12.60
2022-11-24T13:04:19.057Z,13.40
2022-11-24T13:05:19.108Z,11.30
2022-11-24T13:06:19.181Z,11.60
2022-11-24T13:07:19.075Z,12.00
2022-11-24T13:08:19.033Z,11.60